Time;durP1;ratioP1;P1;durP2;ratioP2;P2;SDS_P1;SDS_P2;PMS_P1;PMS_P2;Temp;Humidity;BMP_temperature;BMP_pressure;BME280_temperature;BME280_humidity;BME280_pressure;Samples;Min_cycle;Max_cycle;Signal;HPM_P1;HPM_P2
2022/07/15 00:01:30;;;;;;;2.00;1.27;;;;;;;17.01;65.39;94707.03;4994271;28;20284;-75
2022/07/15 00:03:57;;;;;;;2.08;1.52;;;;;;;17.09;64.58;94707.94;4994696;28;20263;-75
2022/07/15 00:06:25;;;;;;;2.47;1.48;;;;;;;17.09;65.02;94713.41;4994755;28;20206;-75
2022/07/15 00:08:52;;;;;;;2.47;1.33;;;;;;;17.14;64.46;94708.41;4993823;28;20661;-75
2022/07/15 00:11:19;;;;;;;2.40;1.45;;;;;;;17.15;65.38;94706.47;4981030;28;20206;-75
2022/07/15 00:13:46;;;;;;;2.00;1.33;;;;;;;17.11;65.84;94705.63;4994378;28;20209;-75
2022/07/15 00:16:13;;;;;;;6.68;1.73;;;;;;;17.05;65.59;94714.16;4994058;28;20471;-75
2022/07/15 00:18:40;;;;;;;5.97;1.88;;;;;;;17.04;65.77;94718.06;4993830;28;20843;-75
2022/07/15 00:21:07;;;;;;;2.20;1.42;;;;;;;17.00;65.69;94717.19;4994097;28;20205;-75
2022/07/15 00:23:36;;;;;;;1.80;1.33;;;;;;;16.96;65.97;94713.59;4993648;28;20198;-75
2022/07/15 00:26:03;;;;;;;3.53;1.58;;;;;;;17.02;65.98;94714.09;4993861;28;20257;-75
2022/07/15 00:28:29;;;;;;;6.38;1.30;;;;;;;16.93;65.88;94721.78;4993860;28;20291;-75
2022/07/15 00:30:56;;;;;;;2.55;1.65;;;;;;;16.88;66.24;94714.66;4993855;28;20206;-75
2022/07/15 00:33:23;;;;;;;2.78;1.50;;;;;;;16.86;66.56;94722.44;4993335;28;20241;-75
2022/07/15 00:35:50;;;;;;;1.60;1.27;;;;;;;16.79;66.88;94716.84;4993316;28;20233;-75
2022/07/15 00:38:17;;;;;;;2.42;1.50;;;;;;;16.76;66.49;94723.03;4993832;28;20305;-75
2022/07/15 00:40:46;;;;;;;2.67;1.60;;;;;;;16.77;67.16;94719.16;4993682;28;20237;-75
2022/07/15 00:43:15;;;;;;;1.85;1.42;;;;;;;16.76;67.75;94717.56;4993048;28;20210;-75
2022/07/15 00:45:41;;;;;;;1.95;1.50;;;;;;;16.72;68.60;94716.72;4993605;28;20641;-75
2022/07/15 00:48:08;;;;;;;2.47;1.30;;;;;;;16.71;68.30;94709.66;4993797;28;20206;-75
2022/07/15 00:50:35;;;;;;;4.55;1.92;;;;;;;16.54;68.55;94710.09;4993801;28;20205;-75
2022/07/15 00:53:05;;;;;;;2.42;1.40;;;;;;;16.57;68.00;94703.91;4992915;28;20668;-75
2022/07/15 00:55:34;;;;;;;2.90;1.67;;;;;;;16.51;68.16;94708.09;4992869;28;20234;-75
2022/07/15 00:58:05;;;;;;;2.45;1.50;;;;;;;16.51;68.15;94699.91;4993471;28;20252;-75
2022/07/15 01:00:33;;;;;;;5.15;1.60;;;;;;;16.56;68.40;94692.16;4993094;28;20332;-75
2022/07/15 01:03:00;;;;;;;5.30;1.77;;;;;;;16.56;68.50;94697.63;4993023;28;20213;-75
2022/07/15 01:05:28;;;;;;;3.78;1.48;;;;;;;16.50;68.78;94687.38;4992927;28;20217;-75
2022/07/15 01:07:55;;;;;;;1.27;1.10;;;;;;;16.50;69.27;94698.31;4993128;28;20213;-75
2022/07/15 01:10:23;;;;;;;3.30;1.38;;;;;;;16.41;69.37;94689.53;4993036;28;20229;-75
2022/07/15 01:12:53;;;;;;;3.03;1.50;;;;;;;16.32;69.71;94693.31;4993018;28;20312;-75
2022/07/15 01:15:21;;;;;;;1.23;1.13;;;;;;;16.37;69.45;94689.50;4992835;28;20236;-74
2022/07/15 01:17:48;;;;;;;4.10;1.70;;;;;;;16.34;69.21;94692.94;4992769;28;20248;-74
2022/07/15 01:20:16;;;;;;;2.78;1.63;;;;;;;16.41;68.33;94695.00;4992865;28;20216;-74
2022/07/15 01:22:44;;;;;;;1.60;1.38;;;;;;;16.48;67.87;94695.16;4992121;28;20675;-74
2022/07/15 01:25:12;;;;;;;1.92;1.50;;;;;;;16.44;68.19;94688.81;4992872;28;20201;-74
2022/07/15 01:27:38;;;;;;;3.08;1.65;;;;;;;16.41;69.35;94689.53;4992711;28;20255;-74
2022/07/15 01:30:06;;;;;;;3.33;1.35;;;;;;;16.33;69.51;94683.94;4992449;28;20221;-75
2022/07/15 01:32:33;;;;;;;1.77;1.58;;;;;;;16.28;69.97;94686.97;4979435;28;20264;-75
2022/07/15 01:35:00;;;;;;;1.80;1.40;;;;;;;16.16;70.82;94684.41;4992586;28;20269;-74
2022/07/15 01:37:27;;;;;;;1.85;1.20;;;;;;;16.12;70.83;94675.38;4992128;28;20202;-74
2022/07/15 01:39:55;;;;;;;5.47;1.63;;;;;;;16.10;71.09;94677.66;4992532;28;20257;-74
2022/07/15 01:42:22;;;;;;;2.28;1.60;;;;;;;16.16;69.89;94672.66;4992471;28;20205;-74
2022/07/15 01:44:49;;;;;;;5.85;1.60;;;;;;;16.17;70.57;94677.78;4991966;28;20268;-74
2022/07/15 01:47:16;;;;;;;2.63;1.73;;;;;;;16.12;71.00;94678.09;4992220;28;20677;-74
2022/07/15 01:49:43;;;;;;;2.15;1.50;;;;;;;16.07;71.42;94675.63;4991938;28;20209;-74
2022/07/15 01:52:10;;;;;;;2.08;1.40;;;;;;;16.07;70.46;94681.09;4991990;28;20213;-74
2022/07/15 01:54:37;;;;;;;2.45;1.60;;;;;;;16.10;70.34;94679.59;4992029;28;20260;-74
2022/07/15 01:57:06;;;;;;;4.80;1.48;;;;;;;16.09;70.32;94683.47;4992053;28;20851;-74
2022/07/15 01:59:32;;;;;;;2.15;1.75;;;;;;;16.06;70.78;94684.19;4992217;28;20256;-74
2022/07/15 02:02:00;;;;;;;6.15;1.42;;;;;;;15.99;70.80;94690.31;4992400;28;20209;-74
2022/07/15 02:04:27;;;;;;;2.00;1.63;;;;;;;15.95;70.17;94684.00;4991909;28;20253;-74
2022/07/15 02:06:54;;;;;;;3.90;1.38;;;;;;;15.91;70.15;94694.06;4991235;28;20210;-74
2022/07/15 02:09:21;;;;;;;3.95;1.83;;;;;;;15.90;69.86;94695.19;4991505;28;20268;-74
2022/07/15 02:11:48;;;;;;;2.13;1.70;;;;;;;15.91;70.26;94694.06;4992052;28;20201;-74
2022/07/15 02:14:16;;;;;;;4.88;1.75;;;;;;;15.88;70.89;94697.50;4991987;28;20274;-74
2022/07/15 02:16:43;;;;;;;3.55;1.67;;;;;;;15.75;71.25;94696.06;4991229;28;20820;-74
2022/07/15 02:19:09;;;;;;;2.83;1.75;;;;;;;15.77;70.99;94688.28;4991026;28;20731;-75
2022/07/15 02:21:37;;;;;;;8.18;2.30;;;;;;;15.79;70.68;94694.19;4991787;28;20205;-73
2022/07/15 02:24:05;;;;;;;3.13;1.77;;;;;;;15.80;71.03;94693.03;4991477;28;20205;-74
2022/07/15 02:26:40;;;;;;;3.33;1.98;;;;;;;15.78;71.67;94685.22;5087902;27;20545;-74
2022/07/15 02:29:07;;;;;;;3.13;1.83;;;;;;;15.72;72.02;94685.84;5073781;28;20700;-74
2022/07/15 02:31:35;;;;;;;2.95;1.70;;;;;;;15.76;71.72;94703.09;5073995;28;20202;-74
2022/07/15 02:34:01;;;;;;;3.50;1.77;;;;;;;15.68;71.93;94685.00;5080216;28;20298;-74
2022/07/15 02:36:29;;;;;;;3.25;2.10;;;;;;;15.72;71.33;94685.84;5081552;28;20210;-74
2022/07/15 02:38:56;;;;;;;4.65;1.95;;;;;;;15.64;72.54;94688.44;5087099;28;20202;-74
2022/07/15 02:41:23;;;;;;;6.25;2.40;;;;;;;15.55;72.36;94682.41;5074163;28;20202;-74
2022/07/15 02:43:51;;;;;;;3.25;2.08;;;;;;;15.56;72.46;94686.72;5071874;28;20205;-74
2022/07/15 02:46:19;;;;;;;5.13;1.88;;;;;;;15.51;73.05;94686.94;5094577;28;20692;-74
2022/07/15 02:48:46;;;;;;;4.25;2.05;;;;;;;15.49;73.35;94686.50;5078797;28;20264;-74
2022/07/15 02:51:14;;;;;;;3.40;2.25;;;;;;;15.49;73.24;94689.25;5068839;28;20210;-74
2022/07/15 02:53:41;;;;;;;7.07;1.88;;;;;;;15.50;73.15;94685.38;5078583;28;20246;-74
2022/07/15 02:56:09;;;;;;;2.50;1.65;;;;;;;15.54;73.47;94683.50;5080057;28;20670;-74
2022/07/15 02:58:36;;;;;;;2.42;1.80;;;;;;;15.54;72.96;94688.97;5076163;28;20285;-74
2022/07/15 03:01:04;;;;;;;5.32;2.05;;;;;;;15.57;72.99;94674.63;5073053;28;20210;-74
2022/07/15 03:03:31;;;;;;;1.95;1.77;;;;;;;15.60;72.81;94684.81;5076798;28;20287;-74
2022/07/15 03:05:59;;;;;;;6.72;2.50;;;;;;;15.56;73.04;94678.53;5080012;28;20288;-74
2022/07/15 03:08:26;;;;;;;4.30;1.95;;;;;;;15.53;72.35;94681.94;5077161;28;20293;-74
2022/07/15 03:10:52;;;;;;;2.95;1.90;;;;;;;15.60;72.60;94678.56;5072648;28;20203;-74
2022/07/15 03:13:20;;;;;;;5.00;2.30;;;;;;;15.77;72.73;94683.63;5075707;28;20265;-74
2022/07/15 03:15:47;;;;;;;3.38;2.08;;;;;;;16.26;71.93;94683.81;5080004;28;20545;-74
2022/07/15 03:18:15;;;;;;;3.88;1.90;;;;;;;16.95;69.77;94678.38;5077213;28;20210;-74
2022/07/15 03:20:42;;;;;;;4.55;2.60;;;;;;;17.66;66.71;94672.03;5072388;28;20210;-74
2022/07/15 03:23:09;;;;;;;4.05;2.78;;;;;;;17.75;66.15;94669.84;5075093;28;20206;-74
2022/07/15 03:25:36;;;;;;;7.25;2.65;;;;;;;18.57;63.30;94664.47;5079644;28;20257;-74
2022/07/15 03:28:02;;;;;;;5.95;2.42;;;;;;;19.52;59.81;94670.00;5065972;28;20559;-74
2022/07/15 03:30:30;;;;;;;4.15;2.53;;;;;;;20.18;58.02;94659.72;5079280;28;20666;-74
2022/07/15 03:32:57;;;;;;;4.93;2.97;;;;;;;20.72;56.94;94661.44;5078144;28;20202;-74
2022/07/15 03:35:25;;;;;;;4.15;2.47;;;;;;;21.04;55.80;94653.22;5072544;28;20206;-74
2022/07/15 03:37:52;;;;;;;5.40;2.53;;;;;;;21.56;54.58;94648.06;5073706;28;20211;-74
2022/07/15 03:40:19;;;;;;;5.22;2.20;;;;;;;21.65;53.91;94656.69;5059308;28;20218;-75
2022/07/15 03:42:46;;;;;;;7.90;2.50;;;;;;;22.98;50.40;94647.41;5060178;28;20203;-74
2022/07/15 03:45:13;;;;;;;8.45;3.47;;;;;;;23.49;49.30;94651.34;5070903;28;20222;-75
2022/07/15 03:47:40;;;;;;;4.65;2.78;;;;;;;23.64;48.43;94644.50;5060031;28;20303;-74
2022/07/15 03:50:08;;;;;;;6.95;3.72;;;;;;;24.48;46.51;94635.59;5065941;28;20222;-75
2022/07/15 03:52:36;;;;;;;6.22;3.10;;;;;;;24.73;45.46;94644.38;5065577;28;20256;-75
2022/07/15 03:55:03;;;;;;;4.55;2.95;;;;;;;25.22;44.44;94642.84;5059189;28;20458;-74
2022/07/15 03:57:30;;;;;;;4.13;2.92;;;;;;;24.73;45.70;94650.69;5059095;28;20629;-74
2022/07/15 03:59:57;;;;;;;7.30;2.75;;;;;;;24.62;45.37;94655.59;5059093;28;20203;-75
2022/07/15 04:02:23;;;;;;;5.82;2.85;;;;;;;25.57;43.70;94646.97;5059169;28;20332;-75
2022/07/15 04:04:50;;;;;;;4.63;2.60;;;;;;;25.79;42.44;94650.19;5065475;28;20638;-75
2022/07/15 04:07:17;;;;;;;3.58;2.47;;;;;;;26.61;40.95;94643.81;5065733;28;20515;-75
2022/07/15 04:09:46;;;;;;;4.40;2.65;;;;;;;26.39;41.34;94645.47;5052118;28;20208;-73
2022/07/15 04:12:12;;;;;;;2.90;1.75;;;;;;;26.64;38.41;94644.94;5065096;28;20261;-75
2022/07/15 04:14:39;;;;;;;3.85;1.95;;;;;;;27.45;37.53;94648.63;5059175;28;20818;-74
2022/07/15 04:17:06;;;;;;;2.05;1.52;;;;;;;28.17;35.77;94645.50;5058485;28;20207;-74
2022/07/15 04:19:33;;;;;;;2.92;2.03;;;;;;;28.57;35.70;94643.19;5064059;28;20265;-75
2022/07/15 04:22:00;;;;;;;4.68;2.00;;;;;;;29.50;34.84;94641.16;5065567;28;20199;-76
2022/07/15 04:24:27;;;;;;;2.55;2.10;;;;;;;29.63;34.29;94639.09;5051865;28;20536;-75
2022/07/15 04:26:55;;;;;;;5.93;2.50;;;;;;;29.86;34.38;94634.34;5052228;28;20624;-76
2022/07/15 04:29:22;;;;;;;4.05;2.60;;;;;;;30.08;33.92;94640.75;5060103;28;20309;-76
2022/07/15 04:31:48;;;;;;;4.97;2.80;;;;;;;30.69;33.75;94639.34;5058688;28;20250;-77
2022/07/15 04:34:15;;;;;;;4.18;2.63;;;;;;;30.14;34.37;94644.53;5063377;28;20200;-74
2022/07/15 04:36:42;;;;;;;8.45;3.60;;;;;;;30.37;33.83;94638.50;5066900;28;20744;-75
2022/07/15 04:39:09;;;;;;;3.53;2.65;;;;;;;30.79;34.18;94649.34;5071893;28;20268;-76
2022/07/15 04:41:36;;;;;;;3.50;2.55;;;;;;;31.03;33.10;94646.81;5062391;28;20248;-75
2022/07/15 04:44:05;;;;;;;3.90;2.63;;;;;;;31.17;33.49;94651.09;5063851;28;20238;-75
2022/07/15 04:46:32;;;;;;;5.80;2.60;;;;;;;31.76;32.11;94647.88;5071820;28;20226;-76
2022/07/15 04:51:43;;;;;;;3.60;2.42;;;;;;;31.69;30.98;94641.81;5057326;28;20264;-75
2022/07/15 04:54:10;;;;;;;2.85;2.38;;;;;;;31.50;31.63;94640.19;5058951;28;20200;-76
2022/07/15 04:56:38;;;;;;;3.35;2.60;;;;;;;31.71;30.95;94644.91;5064941;28;20207;-76
2022/07/15 04:59:06;;;;;;;3.25;2.28;;;;;;;32.18;30.82;94649.31;5051264;28;20718;-75
2022/07/15 05:01:33;;;;;;;6.30;2.40;;;;;;;31.82;31.19;94655.69;5058334;28;20268;-76
2022/07/15 05:04:01;;;;;;;3.80;2.58;;;;;;;31.79;31.11;94652.56;5057779;28;20204;-76
2022/07/15 05:06:28;;;;;;;4.25;2.40;;;;;;;32.54;30.95;94654.13;5064258;28;20231;-75
2022/07/15 05:08:54;;;;;;;2.85;2.55;;;;;;;32.75;29.51;94647.59;5064158;28;20202;-76
2022/07/15 05:11:21;;;;;;;4.28;2.58;;;;;;;33.12;29.44;94640.63;5058637;28;20551;-76
2022/07/15 05:13:48;;;;;;;5.00;2.80;;;;;;;33.22;29.45;94640.56;5056959;28;20207;-76
2022/07/15 05:16:16;;;;;;;4.18;2.20;;;;;;;33.04;29.75;94659.06;5063167;28;20273;-76
2022/07/15 05:18:44;;;;;;;2.45;1.98;;;;;;;33.01;29.67;94648.78;5064463;28;20272;-77
2022/07/15 05:21:11;;;;;;;2.28;2.08;;;;;;;32.13;30.58;94654.28;5059363;28;20589;-76
2022/07/15 05:23:40;;;;;;;2.67;2.10;;;;;;;32.56;30.27;94657.25;5057005;28;20211;-76
2022/07/15 05:26:06;;;;;;;3.00;2.42;;;;;;;33.40;29.51;94649.72;5061780;28;20250;-75
2022/07/15 05:28:33;;;;;;;5.05;2.50;;;;;;;34.06;28.38;94646.06;5063461;28;20292;-76
2022/07/15 05:31:01;;;;;;;3.97;2.75;;;;;;;34.92;26.78;94646.75;5059891;28;20203;-76
2022/07/15 05:33:34;;;;;;;5.80;4.15;;;;;;;34.95;27.09;94639.38;5057346;28;20222;-76
2022/07/15 05:36:01;;;;;;;4.07;2.40;;;;;;;35.18;27.28;94638.47;5061055;28;20210;-77
2022/07/15 05:38:27;;;;;;;5.10;2.50;;;;;;;35.46;26.00;94641.75;5050498;28;20219;-77
2022/07/15 05:40:54;;;;;;;6.53;2.70;;;;;;;34.62;26.98;94647.19;5060677;28;20346;-78
2022/07/15 05:43:21;;;;;;;3.30;2.28;;;;;;;34.02;27.55;94639.88;5056493;28;20241;-76
2022/07/15 05:45:48;;;;;;;2.40;1.95;;;;;;;33.93;27.82;94637.09;5070395;28;20223;-77
2022/07/15 05:48:15;;;;;;;4.50;2.20;;;;;;;34.88;26.74;94636.94;5066935;28;20671;-76
2022/07/15 05:50:43;;;;;;;4.40;2.28;;;;;;;34.15;27.21;94637.56;5059903;28;20241;-77
2022/07/15 05:53:10;;;;;;;3.38;2.30;;;;;;;35.06;26.37;94642.38;5056555;28;20252;-76
2022/07/15 05:55:37;;;;;;;4.30;2.22;;;;;;;34.83;26.40;94640.44;5058764;28;20273;-76
2022/07/15 05:58:07;;;;;;;4.30;2.78;;;;;;;34.91;26.84;94644.41;5063443;28;20204;-76
2022/07/15 06:00:33;;;;;;;3.60;1.98;;;;;;;35.30;26.33;94633.03;5061248;28;20211;-77
2022/07/15 06:03:00;;;;;;;2.60;2.10;;;;;;;35.97;26.02;94634.78;5057025;28;20202;-77
2022/07/15 06:05:27;;;;;;;7.72;2.28;;;;;;;34.40;27.07;94637.06;5057930;28;20195;-77
2022/07/15 06:07:56;;;;;;;4.18;2.20;;;;;;;34.04;28.25;94637.31;5055682;28;20198;-77
2022/07/15 06:10:23;;;;;;;4.25;2.17;;;;;;;34.19;26.99;94643.78;5057242;28;20682;-77
2022/07/15 06:12:52;;;;;;;4.40;2.50;;;;;;;32.80;28.98;94649.78;5056550;28;20229;-77
2022/07/15 06:15:19;;;;;;;4.25;2.90;;;;;;;32.92;28.20;94646.00;5056924;28;20842;-75
2022/07/15 06:17:46;;;;;;;2.97;1.80;;;;;;;32.86;28.35;94653.50;5063413;28;20203;-75
2022/07/15 06:20:13;;;;;;;6.15;2.35;;;;;;;33.62;27.75;94646.66;5063256;28;20600;-77
2022/07/15 06:22:40;;;;;;;6.07;2.58;;;;;;;32.42;29.22;94653.84;5056910;28;20319;-75
2022/07/15 06:25:09;;;;;;;5.32;2.20;;;;;;;31.88;31.14;94659.41;5055887;28;20641;-76
2022/07/15 06:27:36;;;;;;;5.50;2.10;;;;;;;31.40;31.03;94653.38;5050101;28;20231;-76
2022/07/15 06:30:06;;;;;;;6.63;2.40;;;;;;;30.84;32.34;94659.94;5050041;28;20210;-75
2022/07/15 06:32:33;;;;;;;4.00;2.28;;;;;;;31.52;30.83;94654.50;5049995;28;20278;-76
2022/07/15 06:35:00;;;;;;;7.32;2.10;;;;;;;31.83;30.31;94662.84;5050283;28;20211;-76
2022/07/15 06:37:27;;;;;;;5.22;2.30;;;;;;;33.02;29.21;94649.56;5058714;28;20244;-76
2022/07/15 06:39:54;;;;;;;2.33;2.08;;;;;;;32.90;28.79;94654.13;5054688;28;20206;-76
2022/07/15 06:42:23;;;;;;;2.85;2.03;;;;;;;33.69;28.42;94645.50;5052808;28;20203;-77
2022/07/15 06:44:50;;;;;;;3.85;2.17;;;;;;;34.77;27.13;94642.38;5054066;28;20725;-76
2022/07/15 06:47:17;;;;;;;3.03;1.95;;;;;;;34.79;27.64;94651.88;5067795;28;20747;-75
2022/07/15 06:49:44;;;;;;;6.05;2.20;;;;;;;33.41;28.72;94647.69;5053815;28;21234;-75
2022/07/15 06:52:11;;;;;;;3.83;1.90;;;;;;;32.81;29.32;94651.31;5059354;28;20570;-77
2022/07/15 06:54:39;;;;;;;4.18;2.40;;;;;;;33.19;28.65;94643.09;5056137;28;20300;-76
2022/07/15 06:57:05;;;;;;;6.10;2.45;;;;;;;33.70;28.08;94639.41;5059902;28;20246;-77
2022/07/15 06:59:34;;;;;;;4.65;2.00;;;;;;;34.91;27.56;94636.75;5063171;28;20199;-76
2022/07/15 07:02:00;;;;;;;2.55;2.03;;;;;;;33.96;27.47;94633.34;5059366;28;20272;-75
2022/07/15 07:04:27;;;;;;;3.42;1.92;;;;;;;34.62;26.24;94635.94;5055925;28;20202;-76
2022/07/15 07:06:54;;;;;;;3.35;2.08;;;;;;;34.52;26.76;94633.22;5058978;28;20277;-75
2022/07/15 07:09:21;;;;;;;6.00;2.22;;;;;;;35.19;26.76;94634.38;5053400;28;20658;-76
2022/07/15 07:11:48;;;;;;;3.90;1.88;;;;;;;35.10;26.24;94631.69;5057760;28;20196;-79
2022/07/15 07:14:15;;;;;;;2.35;1.90;;;;;;;33.13;28.04;94642.16;5062277;28;20249;-78
2022/07/15 07:16:44;;;;;;;2.72;1.95;;;;;;;32.96;27.88;94635.38;5052908;28;20203;-78
2022/07/15 07:19:11;;;;;;;4.35;2.00;;;;;;;34.26;26.77;94625.75;5066897;28;20220;-76
2022/07/15 07:21:38;;;;;;;2.28;1.83;;;;;;;33.47;27.88;94634.56;5053748;28;20290;-76
2022/07/15 07:24:05;;;;;;;2.95;1.60;;;;;;;34.25;27.30;94636.25;5058804;28;20260;-78
2022/07/15 07:26:32;;;;;;;4.65;1.95;;;;;;;35.35;26.20;94635.16;5060169;28;20350;-78
2022/07/15 07:28:59;;;;;;;4.78;1.88;;;;;;;35.78;25.19;94628.66;5058860;28;20214;-77
2022/07/15 07:31:26;;;;;;;4.80;2.28;;;;;;;35.80;26.39;94628.16;5061039;28;20210;-78
2022/07/15 07:33:56;;;;;;;3.33;1.98;;;;;;;35.77;26.06;94621.47;5066660;28;20298;-77
2022/07/15 07:36:22;;;;;;;3.35;1.92;;;;;;;34.67;26.93;94615.56;5065862;28;20285;-75
2022/07/15 07:38:49;;;;;;;2.92;2.30;;;;;;;33.49;28.69;94627.19;5072800;28;20539;-76
2022/07/15 07:41:16;;;;;;;6.13;2.00;;;;;;;31.99;29.26;94632.47;5059563;28;20266;-76
2022/07/15 07:43:44;;;;;;;2.55;1.77;;;;;;;33.04;27.83;94619.75;5064544;28;20210;-76
2022/07/15 07:46:12;;;;;;;1.70;1.60;;;;;;;33.27;28.00;94620.31;5072688;28;20538;-77
2022/07/15 07:48:39;;;;;;;2.50;2.03;;;;;;;34.07;27.24;94619.50;5052095;28;20761;-78
2022/07/15 07:51:08;;;;;;;4.25;2.05;;;;;;;34.21;27.37;94619.53;5052440;28;20638;-76
2022/07/15 07:53:35;;;;;;;4.45;2.17;;;;;;;34.85;27.51;94621.78;5052493;28;20659;-76
2022/07/15 07:56:04;;;;;;;2.72;1.98;;;;;;;33.83;28.33;94628.75;5052606;28;20291;-77
2022/07/15 07:58:30;;;;;;;2.60;2.08;;;;;;;33.68;28.83;94622.25;5052759;28;20207;-78
2022/07/15 08:00:57;;;;;;;3.90;2.55;;;;;;;33.15;30.04;94625.63;5052595;28;20666;-77
2022/07/15 08:03:24;;;;;;;5.00;2.35;;;;;;;32.44;30.58;94637.34;5052898;28;20216;-77
2022/07/15 08:05:53;;;;;;;3.83;2.05;;;;;;;31.53;31.91;94628.81;5051874;28;20269;-75
2022/07/15 08:08:22;;;;;;;5.15;2.05;;;;;;;31.27;32.09;94628.28;5052416;28;20243;-76
2022/07/15 08:10:52;;;;;;;3.88;1.88;;;;;;;30.46;33.93;94631.41;5052331;28;20648;-76
2022/07/15 08:13:20;;;;;;;3.45;1.70;;;;;;;30.09;33.71;94631.13;5052370;28;20630;-78
2022/07/15 08:15:47;;;;;;;4.70;1.88;;;;;;;30.78;31.75;94622.59;5051955;28;20253;-77
2022/07/15 08:18:14;;;;;;;4.88;2.08;;;;;;;31.55;31.03;94614.38;5052554;28;20258;-78
2022/07/15 08:20:41;;;;;;;3.55;1.90;;;;;;;30.90;31.69;94621.72;5052288;28;20582;-76
2022/07/15 08:23:09;;;;;;;2.25;1.80;;;;;;;30.38;31.49;94614.91;5052198;28;20199;-76
2022/07/15 08:25:38;;;;;;;3.97;1.80;;;;;;;30.17;32.56;94624.06;5052073;28;20235;-77
2022/07/15 08:28:07;;;;;;;2.28;1.70;;;;;;;30.99;30.87;94619.00;5051881;28;20839;-78
2022/07/15 08:30:34;;;;;;;2.65;2.00;;;;;;;31.71;29.70;94612.06;5052486;28;20216;-77
2022/07/15 08:33:01;;;;;;;3.03;1.63;;;;;;;30.50;30.87;94613.25;5052503;28;20229;-76
2022/07/15 08:35:29;;;;;;;1.95;1.60;;;;;;;30.70;32.09;94612.94;5051730;28;20207;-76
2022/07/15 08:37:56;;;;;;;5.03;2.50;;;;;;;31.73;29.77;94617.97;5064412;28;20570;-77
2022/07/15 08:40:24;;;;;;;3.33;1.60;;;;;;;31.64;30.50;94612.38;5071766;28;20280;-76
2022/07/15 08:42:52;;;;;;;3.00;1.60;;;;;;;31.21;31.17;94612.56;5059350;28;20272;-76
2022/07/15 08:45:19;;;;;;;4.10;1.80;;;;;;;30.85;31.61;94613.94;5071174;28;20680;-76
2022/07/15 08:47:47;;;;;;;2.80;1.80;;;;;;;30.67;30.96;94608.25;5058152;28;20298;-76
2022/07/15 08:50:16;;;;;;;4.13;2.00;;;;;;;30.57;30.74;94610.22;5051449;28;20275;-76
2022/07/15 08:52:44;;;;;;;2.33;1.88;;;;;;;30.53;31.14;94597.59;5051692;28;20199;-76
2022/07/15 08:55:12;;;;;;;4.70;1.65;;;;;;;30.16;31.56;94607.75;5051702;28;20703;-77
2022/07/15 08:57:39;;;;;;;3.65;1.63;;;;;;;30.18;30.79;94606.06;5052431;28;20273;-77
2022/07/15 09:00:10;;;;;;;3.97;1.70;;;;;;;30.96;29.57;94603.13;5051143;28;20290;-76
2022/07/15 09:02:37;;;;;;;2.33;1.60;;;;;;;30.87;30.45;94597.50;5051536;28;20654;-74
2022/07/15 09:05:21;;;;;;;4.57;1.80;;;;;;;30.69;31.84;94605.78;5050933;28;20583;-75
2022/07/15 09:07:54;;;;;;;5.10;2.22;;;;;;;30.50;30.43;94609.69;5051164;28;20219;-77
2022/07/15 09:10:21;;;;;;;3.92;1.95;;;;;;;29.85;30.72;94604.84;5051442;28;20301;-77
2022/07/15 09:12:50;;;;;;;2.83;1.88;;;;;;;29.95;31.49;94593.28;5051181;28;20279;-78
2022/07/15 09:15:34;;;;;;;3.22;2.30;;;;;;;30.96;31.07;94597.50;5051393;28;20200;-78
2022/07/15 09:18:10;;;;;;;4.03;1.70;;;;;;;31.71;28.88;94588.88;5050915;28;20196;-76
2022/07/15 09:20:37;;;;;;;1.70;1.50;;;;;;;31.33;29.35;94580.84;5064224;28;20206;-77
2022/07/15 09:23:05;;;;;;;2.42;1.80;;;;;;;31.53;30.14;94584.00;5060329;28;20202;-78
2022/07/15 09:25:34;;;;;;;4.50;1.63;;;;;;;31.12;31.22;94587.34;5057106;28;20260;-74
2022/07/15 09:28:03;;;;;;;3.35;1.90;;;;;;;29.75;32.94;94586.44;5061444;28;20278;-77
2022/07/15 09:33:38;;;;;;;3.80;1.88;;;;;;;29.34;31.59;94593.81;5063203;28;20552;-74
2022/07/15 09:36:14;;;;;;;3.67;1.70;;;;;;;29.61;30.60;94591.31;5059650;28;20205;-77
2022/07/15 09:38:47;;;;;;;2.38;1.48;;;;;;;29.47;30.76;94591.78;5070524;28;20542;-80
2022/07/15 09:41:25;;;;;;;5.55;2.83;;;;;;;28.79;32.82;94586.81;5057388;28;20281;-78
2022/07/15 09:43:55;;;;;;;2.10;1.60;;;;;;;29.04;31.14;94591.59;5058167;28;20677;-74
2022/07/15 09:46:25;;;;;;;3.17;1.58;;;;;;;29.76;30.75;94591.59;5068816;28;20261;-76
2022/07/15 09:48:53;;;;;;;1.83;1.60;;;;;;;29.76;31.62;94588.00;5059146;28;20231;-76
2022/07/15 09:51:21;;;;;;;2.60;1.88;;;;;;;30.50;31.32;94574.09;5056520;28;20666;-76
2022/07/15 09:53:48;;;;;;;4.80;2.03;;;;;;;30.65;30.09;94577.16;5061116;28;20621;-75
2022/07/15 09:56:21;;;;;;;4.20;1.70;;;;;;;31.10;29.16;94585.00;5063900;28;20585;-76
2022/07/15 09:58:48;;;;;;;4.90;1.80;;;;;;;31.20;29.81;94569.00;5061175;28;20191;-77
2022/07/15 10:01:15;;;;;;;1.73;1.63;;;;;;;31.67;29.35;94577.84;5052693;28;20303;-77
2022/07/15 10:03:43;;;;;;;2.17;1.65;;;;;;;32.02;28.29;94571.91;5061543;28;20195;-76
2022/07/15 10:06:14;;;;;;;9.63;2.70;;;;;;;31.50;29.49;94579.34;5056839;28;20206;-76
2022/07/15 10:08:46;;;;;;;2.08;1.63;;;;;;;31.32;29.26;94579.28;5058289;28;20215;-75
2022/07/15 10:11:13;;;;;;;1.85;1.50;;;;;;;31.01;30.61;94568.94;5063294;28;20196;-75
2022/07/15 10:14:15;;;;;;;1.67;1.50;;;;;;;29.52;30.26;94574.44;5063721;28;20669;-76
2022/07/15 10:17:18;;;;;;;3.28;1.45;;;;;;;29.45;32.68;94580.28;5042350;28;20203;-76
2022/07/15 10:20:11;;;;;;;2.95;1.60;;;;;;;29.70;31.18;94571.81;5060049;28;20202;-75
2022/07/15 10:22:51;;;;;;;2.95;1.77;;;;;;;29.66;32.29;94579.53;5057359;28;20790;-74
2022/07/15 10:25:32;;;;;;;1.90;1.58;;;;;;;29.78;30.74;94571.59;5056220;28;20239;-80
2022/07/15 10:28:05;;;;;;;2.67;1.55;;;;;;;30.18;31.98;94566.94;5059017;28;20215;-75
2022/07/15 10:30:33;;;;;;;2.55;1.70;;;;;;;30.06;30.36;94570.59;5063415;28;20692;-76
2022/07/15 10:33:14;;;;;;;3.42;1.40;;;;;;;30.60;29.67;94574.97;5061480;28;20530;-75
2022/07/15 10:35:45;;;;;;;2.20;1.40;;;;;;;30.42;29.79;94560.88;5057657;28;20282;-74
2022/07/15 10:38:28;;;;;;;1.83;1.58;;;;;;;30.27;30.45;94561.41;5068128;28;20199;-77
2022/07/15 10:41:00;;;;;;;2.85;1.48;;;;;;;30.91;31.02;94556.13;5060327;28;20680;-75
2022/07/15 10:43:45;;;;;;;3.55;1.67;;;;;;;30.69;29.64;94549.84;5056309;28;20688;-76
2022/07/15 10:46:30;;;;;;;12.50;3.80;;;;;;;31.33;28.53;94550.84;5068617;28;20202;-75
2022/07/15 10:49:31;;;;;;;2.08;1.80;;;;;;;31.00;30.77;94547.78;5062688;28;20776;-75
2022/07/15 10:52:13;;;;;;;3.00;1.40;;;;;;;30.49;31.14;94541.78;5061012;28;20206;-76
2022/07/15 10:54:48;;;;;;;1.70;1.60;;;;;;;30.77;29.67;94542.72;5060387;28;20812;-76
2022/07/15 10:57:19;;;;;;;3.05;1.60;;;;;;;31.35;30.64;94536.38;5063292;28;20207;-76
2022/07/15 10:59:52;;;;;;;2.40;1.48;;;;;;;31.45;29.41;94537.94;5067435;28;20220;-77
2022/07/15 11:02:21;;;;;;;4.55;1.60;;;;;;;31.94;29.87;94537.03;5065902;28;20719;-76
2022/07/15 11:04:48;;;;;;;2.00;1.35;;;;;;;31.98;28.76;94537.69;5060001;28;20203;-76
2022/07/15 11:07:39;;;;;;;5.32;1.90;;;;;;;32.08;28.57;94528.00;5060706;28;20678;-76
2022/07/15 11:10:17;;;;;;;2.78;1.77;;;;;;;31.52;28.28;94537.66;5063476;28;20230;-76
2022/07/15 11:13:03;;;;;;;3.22;1.77;;;;;;;31.69;27.87;94530.53;5060556;28;20293;-75
2022/07/15 11:15:30;;;;;;;1.50;1.40;;;;;;;31.52;28.12;94525.66;5060164;28;20935;-78
2022/07/15 11:17:57;;;;;;;3.90;1.63;;;;;;;31.97;29.12;94533.31;5066547;28;20289;-77
2022/07/15 11:20:28;;;;;;;2.42;1.77;;;;;;;32.08;28.81;94522.41;5067039;28;20194;-77
2022/07/15 11:22:58;;;;;;;3.58;1.77;;;;;;;32.04;29.89;94516.16;5052954;28;20203;-78
2022/07/15 11:25:27;;;;;;;1.80;1.60;;;;;;;32.39;28.00;94514.53;5066241;28;20811;-77
2022/07/15 11:28:04;;;;;;;3.28;1.52;;;;;;;32.39;29.98;94530.63;5061081;28;20227;-78
2022/07/15 11:30:34;;;;;;;2.30;1.42;;;;;;;32.12;26.66;94523.00;5057218;28;20203;-76
2022/07/15 11:33:03;;;;;;;1.73;1.42;;;;;;;31.76;28.51;94519.00;5062631;28;20299;-76
2022/07/15 11:35:31;;;;;;;1.73;1.52;;;;;;;32.24;26.36;94519.28;5057026;28;20344;-76
2022/07/15 11:38:02;;;;;;;2.22;1.50;;;;;;;31.92;27.18;94519.91;5073812;28;20244;-77
2022/07/15 11:46:00;;;;;;;1.73;1.58;;;;;;;32.44;26.67;94499.88;5065376;28;20206;-72
2022/07/15 11:48:27;;;;;;;3.28;1.70;;;;;;;32.31;26.94;94502.13;5059248;28;20226;-71
2022/07/15 11:50:58;;;;;;;4.60;1.60;;;;;;;32.38;28.02;94507.41;5060532;28;20666;-75
2022/07/15 11:53:28;;;;;;;1.90;1.67;;;;;;;32.12;27.56;94511.78;5063292;28;20203;-73